Date,TemperatureHighF,TemperatureAvgF,TemperatureLowF,DewpointHighF,DewpointAvgF,DewpointLowF,HumidityHigh,HumidityAvg,HumidityLow,PressureMaxIn,PressureMinIn,WindSpeedMaxMPH,WindSpeedAvgMPH,GustSpeedMaxMPH,PrecipitationSumIn
2012-1-4,16,11,7,12,6,1,97,83,78,29.74,29.51,5,1,6,0.00
2012-1-5,22,14,6,22,12,4,100,95,88,29.65,29.50,13,2,15,0.00
2012-1-6,34,22,9,34,21,7,100,99,96,29.61,29.43,7,1,9,0.00
2012-1-7,37,30,24,37,28,19,100,95,81,29.87,29.44,24,3,24,0.16
2012-1-8,30,18,8,24,14,5,96,87,75,30.06,29.71,18,4,21,0.00
2012-1-9,34,22,7,29,16,5,100,83,59,30.04,29.51,13,2,14,0.00
2012-1-10,32,28,22,30,23,12,100,87,64,29.81,29.51,16,4,20,0.00
2012-1-11,28,22,14,26,19,12,100,91,81,29.85,29.52,11,2,13,0.00
2012-1-12,31,27,25,30,27,22,100,99,88,29.71,29.01,13,4,17,0.00
2012-1-13,32,24,4,32,23,2,100,100,96,29.56,28.92,26,6,34,0.01
2012-1-14,17,2,-9,17,-1,-16,100,91,80,30.01,29.34,14,5,17,0.00
2012-1-15,2,-8,-21,-4,-12,-24,93,87,77,30.28,29.84,17,3,21,0.00
2012-1-16,20,8,-21,20,4,-24,100,88,74,30.28,29.65,14,2,14,0.00
2012-1-17,38,26,15,38,25,10,100,98,86,29.75,29.09,39,4,39,0.00
2012-1-18,36,10,-8,34,4,-18,97,81,61,29.94,29.16,24,6,30,0.00
2012-1-19,20,9,-15,15,3,-18,100,81,45,29.93,29.59,18,2,19,0.00
2012-1-20,16,8,-1,15,0,-9,100,73,48,30.03,29.60,21,4,23,0.00
2012-1-21,18,4,-12,11,0,-16,94,87,73,30.22,29.87,10,1,13,0.00
2012-1-22,24,9,-13,20,3,-16,97,81,52,30.25,29.96,11,2,13,0.00
2012-1-23,41,31,19,41,30,15,100,99,89,30.10,29.54,18,3,20,0.43
2012-1-24,41,30,24,41,28,20,100,96,86,30.00,29.55,23,6,25,0.44
2012-1-25,26,24,23,24,21,20,100,94,85,30.03,29.84,18,5,18,0.00
2012-1-26,31,25,23,31,23,19,100,95,73,29.98,29.30,12,3,12,0.00
2012-1-27,36,30,27,36,30,22,100,99,92,29.74,29.09,32,5,34,1.13
2012-1-28,35,28,20,28,24,18,100,87,68,29.75,29.52,28,5,36,0.04
2012-1-29,27,23,17,24,20,12,100,92,72,29.85,29.60,24,5,26,0.00
2012-1-30,24,16,11,24,13,8,100,90,73,29.99,29.69,16,3,19,0.00
2012-1-31,40,26,13,34,25,11,100,98,90,29.96,29.58,12,1,12,0.00
2012-2-1,42,35,24,42,34,20,100,97,92,29.84,29.54,26,5,31,0.62
2012-2-2,30,21,13,28,18,10,100,92,85,30.18,29.78,16,5,18,0.00
2012-2-3,27,22,12,26,18,10,100,90,69,30.19,29.99,20,4,20,0.00
2012-2-4,27,19,3,27,12,-8,100,78,54,30.07,29.90,13,4,14,0.00
2012-2-5,28,15,-6,18,9,-8,98,81,65,29.96,29.73,16,4,19,0.00
2012-2-6,42,32,24,27,23,18,92,75,42,29.81,29.62,22,6,25,0.00
2012-2-7,32,19,-5,27,13,-7,97,83,69,30.05,29.70,13,4,15,0.00
2012-2-8,30,16,-5,20,8,-7,100,76,44,30.05,29.82,12,2,15,0.00
2012-2-9,35,25,11,20,15,7,91,72,45,29.87,29.78,18,4,19,0.00
2012-2-10,31,23,10,20,15,7,96,75,58,29.86,29.56,15,3,15,0.00
2012-2-11,27,15,-4,23,10,-9,99,84,73,29.65,29.46,21,4,21,0.00
2012-2-12,19,3,-4,15,-4,-9,95,76,60,29.60,29.50,24,6,24,0.00
2012-2-13,29,23,7,19,15,1,97,76,54,29.78,29.51,32,7,36,0.00
2012-2-14,34,28,21,26,19,14,99,73,52,29.90,29.71,13,3,14,0.00
2012-2-15,33,30,26,33,27,23,100,93,85,30.06,29.83,11,2,14,0.03
2012-2-16,36,30,27,30,27,23,100,91,71,30.05,29.67,19,2,19,0.00
2012-2-17,32,30,25,32,24,17,100,82,57,29.75,29.67,23,5,26,0.00
2012-2-18,32,26,18,27,21,14,100,84,57,29.87,29.63,14,4,15,0.00
2012-2-19,27,21,12,19,14,8,95,79,63,29.93,29.81,16,4,18,0.00
2012-2-20,29,18,1,17,11,-1,96,76,49,30.13,29.85,21,4,21,0.00
2012-2-21,36,25,1,32,16,-1,100,75,41,30.13,29.42,17,2,18,0.00
2012-2-22,39,33,29,33,29,26,100,90,61,29.53,29.17,19,3,21,0.10
2012-2-23,31,28,19,31,27,19,100,99,93,29.58,29.17,13,2,16,0.03
2012-2-24,29,25,19,29,25,19,100,100,98,29.56,28.97,23,2,27,0.00
2012-2-25,29,19,5,29,17,0,100,94,86,30.04,28.97,26,8,30,0.00
2012-2-26,21,11,2,8,3,-2,94,77,49,30.19,29.76,16,4,18,0.00
2012-2-27,38,23,1,31,18,-2,100,86,54,30.17,29.78,21,4,25,0.08
2012-2-28,28,18,8,27,12,5,100,83,56,30.17,29.89,18,4,19,0.00
2012-2-29,25,21,8,25,19,5,100,94,86,30.14,29.51,13,4,16,0.00
2012-3-1,27,24,22,26,24,22,100,100,100,29.79,29.51,12,4,14,0.00
2012-3-2,32,27,23,32,27,23,100,100,100,29.81,29.23,13,4,16,0.02
2012-3-3,44,33,28,39,27,19,100,82,43,29.47,29.14,32,7,32,0.78
2012-3-4,29,21,1,25,14,-3,94,79,60,29.66,29.34,20,6,20,0.00
2012-3-5,18,7,-6,5,0,-10,94,77,57,30.27,29.46,19,4,22,0.00
2012-3-6,33,18,-7,11,2,-10,95,57,26,30.28,30.11,10,2,12,0.00
2012-3-7,57,37,14,29,20,7,81,54,31,30.19,29.94,18,3,20,0.00
2012-3-8,54,46,28,49,38,27,100,76,43,29.95,29.46,28,5,31,0.50
2012-3-9,31,25,19,28,19,15,100,84,56,29.93,29.62,24,5,27,0.00
2012-3-10,29,22,15,17,14,11,97,78,55,30.26,29.93,13,3,14,0.01
2012-3-11,52,32,12,28,20,9,96,69,39,30.17,30.03,17,2,18,0.02
2012-3-12,62,40,22,35,27,20,99,66,30,30.10,29.88,9,1,11,0.00
2012-3-13,55,44,34,50,36,28,96,76,59,29.88,29.70,20,3,22,0.02
2012-3-14,41,36,31,38,33,28,98,89,79,30.04,29.78,12,2,12,0.00
2012-3-15,50,37,25,41,34,23,100,89,67,30.11,29.98,8,2,10,0.01
2012-3-16,44,39,36,44,39,36,100,99,94,30.04,29.86,14,2,15,0.18
2012-3-17,58,42,32,48,38,29,100,90,57,30.15,30.01,7,1,7,0.00
2012-3-18,75,48,27,54,36,26,100,71,24,30.11,29.94,14,2,16,0.00
2012-3-19,73,51,34,55,42,30,92,75,47,30.05,29.97,11,1,12,0.00
2012-3-20,74,52,33,55,44,32,100,77,44,30.13,30.02,12,1,13,0.00
2012-3-21,77,55,32,53,43,30,100,71,33,30.18,30.01,9,1,11,0.00
2012-3-22,75,56,33,54,46,30,100,74,43,30.06,29.90,19,3,19,0.00
2012-3-23,64,55,44,51,37,22,90,57,30,30.02,29.91,16,4,18,0.00
2012-3-24,49,43,38,31,22,12,75,48,25,29.95,29.81,10,2,10,0.01
2012-3-25,44,40,37,44,39,30,100,96,74,29.82,29.55,8,1,8,0.25
2012-3-26,45,27,19,44,15,0,100,66,38,29.95,29.50,30,8,31,0.00
2012-3-27,38,25,14,10,1,-4,58,40,18,30.10,29.89,18,5,21,0.00
2012-3-28,43,34,27,41,25,8,99,72,42,29.94,29.34,14,3,18,0.12
2012-3-29,37,31,28,36,28,23,100,92,83,29.78,29.42,21,6,21,0.03
2012-3-30,38,29,20,23,13,7,86,56,30,29.90,29.77,24,4,24,0.00
2012-3-31,41,32,26,29,25,14,96,79,52,29.82,29.68,9,2,10,0.03
2012-4-1,41,32,26,34,28,22,100,90,62,29.70,29.46,11,2,13,0.05
2012-4-2,42,34,30,30,20,5,100,64,29,29.69,29.47,24,6,27,0.00
2012-4-3,48,36,26,14,8,3,47,33,17,29.75,29.58,19,6,21,0.00
2012-4-4,44,36,25,34,23,12,93,65,39,29.60,29.39,23,6,25,0.07
2012-4-5,34,30,27,27,21,18,90,72,57,29.73,29.52,19,6,23,0.00
2012-4-6,41,33,27,19,16,10,73,53,35,29.86,29.72,25,6,26,0.00
2012-4-7,43,36,29,21,15,10,57,43,37,29.90,29.82,24,5,24,0.00
2012-4-8,48,39,31,34,23,19,78,56,39,29.84,29.39,23,5,25,0.00
2012-4-9,40,35,31,35,34,29,100,95,78,29.41,29.30,20,6,25,0.33
2012-4-10,40,35,33,37,33,30,100,93,80,29.56,29.35,19,4,20,0.03
2012-4-11,44,36,32,36,32,29,100,88,57,29.78,29.55,13,3,16,0.00
2012-4-12,46,38,31,36,30,24,100,77,48,29.95,29.77,17,4,21,0.00
2012-4-13,55,41,25,35,24,19,98,59,26,30.01,29.89,17,3,19,0.00
2012-4-14,61,45,26,36,25,18,91,53,24,29.99,29.78,18,3,19,0.00
2012-4-15,62,53,45,53,46,32,95,78,61,29.81,29.72,16,2,18,0.00
2012-4-16,81,66,52,64,54,47,100,71,34,29.80,29.61,24,4,29,0.04
2012-4-17,66,49,35,58,35,22,91,62,32,30.06,29.69,24,8,27,0.00
2012-4-18,58,41,27,28,24,21,81,58,27,30.11,29.90,11,3,13,0.00
2012-4-19,66,47,26,39,32,23,96,62,33,29.91,29.73,18,2,21,0.00
2012-4-20,72,56,35,50,41,33,99,63,35,29.79,29.58,18,3,19,0.00
2012-4-21,59,47,38,51,45,38,100,92,70,29.66,29.53,16,3,17,0.30
2012-4-22,45,37,32,41,34,30,100,91,72,29.70,29.53,14,3,15,0.26
2012-4-23,54,42,33,50,40,30,100,95,83,29.58,29.00,19,4,21,0.95
2012-4-24,44,36,32,39,33,29,100,90,67,29.38,29.03,23,5,23,0.30
2012-4-25,42,36,32,37,30,26,98,82,59,29.70,29.38,19,4,22,0.03
2012-4-26,55,39,26,42,33,24,100,84,39,29.70,29.37,18,2,19,0.41
2012-4-27,42,30,26,41,27,21,100,91,78,29.89,29.37,24,8,26,0.05
2012-4-28,42,31,24,21,16,11,84,58,31,29.99,29.88,21,6,27,0.00
2012-4-29,43,34,25,21,14,6,82,49,26,30.09,29.92,30,6,30,0.00
2012-4-30,58,42,23,29,20,12,86,49,24,30.17,29.90,10,2,13,0.00
2012-5-1,48,44,39,48,42,27,100,97,49,29.92,29.81,11,2,11,0.77
2012-5-2,59,49,44,51,48,44,100,94,75,29.95,29.88,11,3,12,0.28
2012-5-3,65,52,45,60,51,45,100,97,80,29.94,29.80,12,3,12,0.43
2012-5-4,67,57,52,64,55,52,100,94,73,29.88,29.71,19,2,23,0.45
2012-5-5,64,52,37,55,42,31,100,74,34,29.94,29.75,16,4,16,0.00
2012-5-6,65,47,28,45,28,18,100,58,19,29.96,29.88,13,2,15,0.00
2012-5-7,69,52,29,50,30,17,96,53,15,29.97,29.78,16,2,17,0.00
2012-5-8,59,49,45,51,48,44,100,98,82,29.80,29.60,14,2,18,1.35
2012-5-9,65,55,50,56,50,42,100,87,57,29.62,29.42,11,2,13,0.06
2012-5-10,52,44,39,46,41,37,100,91,76,29.55,29.32,20,4,26,0.17
2012-5-11,57,46,36,40,32,24,100,65,31,29.89,29.52,27,5,27,0.03
2012-5-12,73,54,30,49,35,27,100,56,28,29.99,29.88,23,4,23,0.00
2012-5-13,67,58,48,53,48,39,88,70,60,30.00,29.94,17,3,18,0.00
2012-5-14,68,56,49,58,51,45,97,85,60,29.99,29.89,11,2,12,0.01
2012-5-15,60,57,54,60,57,54,100,99,94,29.92,29.76,10,2,10,0.74
2012-5-16,73,59,47,63,53,40,100,82,46,29.77,29.57,24,4,26,0.21
2012-5-17,58,48,37,42,33,28,91,62,34,30.01,29.74,22,5,24,0.00
2012-5-18,71,52,33,53,36,28,100,64,26,30.08,29.94,10,2,11,0.00
2012-5-19,81,61,40,54,44,38,100,61,27,30.04,29.94,14,2,14,0.00
2012-5-20,83,66,46,57,50,44,99,62,31,30.10,30.02,12,2,14,0.00
2012-5-21,72,63,50,60,54,46,98,76,44,30.06,29.84,16,3,17,0.07
2012-5-22,67,62,57,66,61,57,100,98,90,29.85,29.66,7,2,9,0.57
2012-5-23,72,62,55,61,58,53,100,86,63,29.87,29.69,11,2,12,0.00
2012-5-24,72,61,49,63,58,49,100,90,70,30.00,29.85,11,2,13,0.00
2012-5-25,74,66,60,65,62,58,97,85,70,29.99,29.84,20,4,23,0.00
2012-5-26,77,67,55,64,52,43,90,64,32,30.00,29.86,17,3,19,0.00
2012-5-27,77,62,47,58,50,46,100,68,38,30.04,29.85,11,2,13,0.00
2012-5-28,84,68,51,65,56,48,96,68,40,29.87,29.64,11,2,13,0.00
2012-5-29,84,67,62,73,65,59,100,92,56,29.68,29.48,21,2,23,0.95
2012-5-30,73,62,48,62,53,43,100,75,40,29.60,29.50,19,3,22,0.02
2012-5-31,63,54,45,57,45,40,100,75,50,29.82,29.59,16,3,18,0.00
2012-6-1,63,53,40,53,45,39,100,77,48,29.89,29.69,16,4,17,0.03
2012-6-2,56,50,47,53,50,47,100,99,93,29.70,29.55,17,3,18,0.82
2012-6-3,63,51,43,56,49,43,100,94,66,29.59,29.47,11,2,14,0.66
2012-6-4,54,48,44,50,47,42,100,94,76,29.70,29.49,13,3,16,0.35
2012-6-5,62,52,42,48,45,41,100,78,53,29.79,29.69,21,3,21,0.01
2012-6-6,63,54,47,56,50,45,100,88,59,29.82,29.76,16,2,16,0.44
2012-6-7,68,56,48,57,50,44,100,83,44,29.82,29.74,13,2,16,0.05
2012-6-8,72,58,47,60,51,46,100,81,43,29.79,29.59,19,3,22,0.44
2012-6-9,71,59,47,61,52,47,100,82,50,29.82,29.67,14,2,16,0.01
2012-6-10,79,66,54,65,57,52,100,74,44,29.99,29.80,9,1,10,0.00
2012-6-11,81,68,55,67,62,54,99,81,59,30.03,29.91,13,2,15,0.00
2012-6-12,68,61,56,61,58,54,100,92,69,29.93,29.69,16,3,20,0.57
2012-6-13,65,59,49,60,53,47,100,84,59,30.00,29.67,15,4,17,0.41
2012-6-14,73,59,43,60,45,40,100,68,32,30.12,29.98,11,2,13,0.00
2012-6-15,80,61,42,54,48,40,100,67,32,30.18,30.06,13,2,14,0.00
2012-6-16,81,65,48,60,53,46,99,69,33,30.16,29.99,11,2,12,0.00
2012-6-17,75,66,59,61,56,52,89,73,53,30.00,29.81,13,2,15,0.00
2012-6-18,72,62,53,60,56,51,99,81,63,29.90,29.82,13,3,14,0.00
2012-6-19,78,68,60,69,62,56,94,83,70,29.91,29.80,9,2,10,0.00
2012-6-20,87,76,66,73,68,64,99,77,51,29.88,29.76,18,4,22,0.03
2012-6-21,87,76,64,67,63,60,90,66,44,29.78,29.59,18,4,18,0.00
2012-6-22,76,69,61,65,59,52,96,75,45,29.67,29.59,14,3,15,0.00
2012-6-23,74,62,52,63,57,50,99,86,49,29.82,29.66,16,2,18,0.16
2012-6-24,77,61,48,65,52,43,100,77,33,29.83,29.68,16,2,19,0.30
2012-6-25,65,56,48,61,54,47,100,93,70,29.70,29.52,21,4,24,0.17
2012-6-26,55,51,48,54,51,47,100,98,90,29.56,29.50,23,5,24,0.29
2012-6-27,66,58,52,54,52,49,100,80,58,29.62,29.46,18,5,21,0.01
2012-6-28,78,64,48,61,52,44,100,71,33,29.64,29.52,16,3,19,0.00
2012-6-29,81,69,58,70,58,50,100,72,36,29.56,29.44,23,4,24,0.03
2012-6-30,81,68,53,62,55,50,97,66,40,29.57,29.49,22,4,26,0.00
2012-7-1,78,67,56,63,58,54,96,74,48,29.71,29.56,17,3,17,0.00
2012-7-2,77,65,58,62,57,51,99,77,42,29.77,29.70,16,3,19,0.31
2012-7-3,80,66,54,66,56,50,100,76,38,29.81,29.63,14,2,16,0.01
2012-7-4,80,70,62,69,65,60,100,85,59,29.64,29.53,18,3,18,0.04
2012-7-5,76,67,58,65,59,55,98,78,57,29.74,29.57,14,4,16,0.00
2012-7-6,84,69,55,71,61,55,100,80,54,29.79,29.66,13,2,19,0.00
2012-7-7,76,67,60,69,63,58,98,87,63,29.70,29.62,14,2,14,0.04
2012-7-8,72,65,54,64,55,48,99,73,44,29.75,29.67,16,4,17,0.00
2012-7-9,70,59,48,58,46,39,100,67,34,29.84,29.73,16,3,20,0.00
2012-7-10,72,57,43,60,51,41,99,81,53,29.94,29.83,15,2,16,0.27
2012-7-11,81,64,49,68,52,47,100,71,34,30.03,29.92,9,2,10,0.00
2012-7-12,84,67,49,63,52,48,100,67,31,30.03,29.93,14,2,16,0.00
2012-7-13,86,69,52,67,54,47,100,65,28,30.03,29.94,13,2,17,0.00
2012-7-14,88,72,56,68,59,54,98,70,35,30.01,29.88,14,2,14,0.00
2012-7-15,81,69,60,70,64,59,100,86,58,29.93,29.71,17,2,18,0.13
2012-7-16,80,71,63,71,65,62,100,83,57,29.73,29.61,14,3,17,0.02
2012-7-17,90,72,63,72,66,61,99,84,44,29.64,29.43,24,3,43,1.81
2012-7-18,75,67,54,69,60,51,100,80,53,29.78,29.55,16,3,19,0.03
2012-7-19,70,60,50,64,51,47,100,75,47,29.86,29.77,13,2,13,0.00
2012-7-20,75,60,47,59,49,45,100,72,41,29.90,29.82,10,1,10,0.00
2012-7-21,79,63,49,60,53,47,100,73,42,29.93,29.82,11,1,13,0.00
2012-7-22,81,68,55,63,59,53,97,75,52,29.93,29.84,10,2,11,0.00
2012-7-23,85,70,59,69,63,57,99,82,52,29.87,29.52,29,2,40,0.34
2012-7-24,73,66,58,69,61,50,100,84,56,29.63,29.45,19,4,22,0.11
2012-7-25,73,62,54,57,52,47,94,73,43,29.75,29.59,15,4,18,0.00
2012-7-26,64,61,58,64,60,56,100,98,90,29.61,29.41,1,0,1,1.62
2012-7-27,75,66,60,68,63,58,100,92,69,29.76,29.44,1,0,1,0.00
2012-7-28,75,64,57,69,60,56,100,87,67,29.82,29.75,12,1,14,0.00
2012-7-29,81,67,55,63,56,51,100,72,39,29.87,29.79,10,1,13,0.00
2012-7-30,81,67,54,70,56,52,100,74,40,29.92,29.82,11,1,13,0.00
2012-7-31,80,69,58,67,61,56,98,79,55,29.86,29.68,12,2,17,0.00
2012-8-1,80,68,62,70,63,60,97,86,53,29.71,29.61,15,2,18,0.54
2012-8-2,82,69,61,71,62,59,100,82,49,29.72,29.65,13,2,13,0.00
2012-8-3,83,70,61,71,62,59,100,78,48,29.92,29.70,14,2,16,0.00
2012-8-4,88,73,58,68,63,57,100,75,43,30.00,29.91,14,2,20,0.00
2012-8-5,80,72,67,72,68,64,99,89,71,29.94,29.65,19,4,21,0.22
2012-8-6,71,63,54,67,56,52,100,82,57,29.83,29.71,14,4,18,0.02
2012-8-7,79,63,50,66,54,48,100,75,38,29.84,29.73,10,2,12,0.00
2012-8-8,83,67,50,63,55,49,100,72,39,29.82,29.73,11,2,12,0.00
2012-8-9,81,66,58,70,62,56,100,88,55,29.77,29.66,11,2,13,0.63
2012-8-10,67,65,62,67,65,62,100,99,97,29.70,29.61,10,2,10,0.79
2012-8-11,78,68,63,70,66,63,100,95,73,29.70,29.61,13,2,16,0.03
2012-8-12,76,66,59,65,60,57,100,84,58,29.74,29.68,14,2,14,0.00
2012-8-13,73,64,57,65,60,56,100,87,64,29.78,29.72,13,2,15,0.00
2012-8-14,74,63,55,69,60,55,100,90,65,29.79,29.68,8,1,8,0.11
2012-8-15,76,65,59,66,61,57,100,87,57,29.73,29.65,10,2,12,0.05
2012-8-16,76,65,56,64,57,54,100,80,49,29.75,29.65,12,3,16,0.00
2012-8-17,72,60,51,65,57,51,100,90,72,29.68,29.56,13,1,16,0.00
2012-8-18,67,56,47,55,49,44,100,79,49,29.78,29.65,11,2,13,0.00
2012-8-19,71,56,42,60,49,42,100,80,49,29.83,29.71,10,1,10,0.00
2012-8-20,73,58,46,61,53,45,100,87,50,29.75,29.67,11,1,13,0.08
2012-8-21,71,58,48,58,50,46,100,77,44,29.93,29.73,10,2,13,0.01
2012-8-22,74,59,43,61,50,43,100,76,40,29.98,29.90,12,2,13,0.00
2012-8-23,77,62,48,68,53,47,100,78,47,29.98,29.92,13,2,14,0.00
2012-8-24,81,65,51,67,56,50,100,76,42,30.03,29.97,10,1,14,0.00
2012-8-25,83,67,53,67,57,52,100,75,40,30.11,30.03,11,1,11,0.00
2012-8-26,81,67,54,69,57,51,100,74,39,30.14,29.99,10,1,11,0.00
2012-8-27,73,64,54,67,61,53,99,90,73,30.00,29.70,12,2,13,0.39
2012-8-28,73,64,51,67,58,46,100,82,57,29.76,29.63,18,4,21,0.03
2012-8-29,68,54,41,53,45,40,100,73,42,29.83,29.75,14,2,16,0.00
2012-8-30,76,59,43,59,52,42,100,80,51,29.85,29.77,18,3,19,0.00
2012-8-31,81,66,50,66,58,48,100,78,54,29.81,29.63,18,3,21,0.00
2012-9-1,78,66,54,65,56,50,100,73,40,29.91,29.71,13,2,13,0.00
2012-9-2,75,60,50,64,51,46,100,75,40,29.95,29.86,10,1,13,0.00
2012-9-3,78,62,45,61,53,44,100,77,49,29.98,29.88,11,2,13,0.00
2012-9-4,68,64,58,66,61,55,100,91,76,29.90,29.54,9,2,9,1.37
2012-9-5,75,66,59,67,61,55,100,87,58,29.70,29.47,13,2,19,0.70
2012-9-6,79,64,55,69,61,53,100,91,64,29.75,29.60,9,1,11,0.02
2012-9-7,77,63,53,68,57,53,100,84,45,29.76,29.49,12,1,12,0.02
2012-9-8,75,61,49,66,57,44,100,90,69,29.63,29.26,19,4,23,0.59
2012-9-9,64,52,45,52,47,42,100,83,55,29.79,29.54,12,2,16,0.59
2012-9-10,53,47,42,48,43,36,100,85,65,30.04,29.73,18,4,18,0.00
2012-9-11,67,50,37,52,42,36,100,80,39,30.15,29.93,10,2,12,0.00
2012-9-12,77,56,40,58,48,40,100,78,41,30.15,30.06,11,1,12,0.00
2012-9-13,80,60,44,64,51,43,100,78,39,30.15,30.02,11,1,13,0.00
2012-9-14,77,60,48,65,54,47,100,82,51,30.06,29.81,22,2,25,0.09
2012-9-15,58,52,48,54,48,38,99,88,61,29.92,29.85,13,4,18,0.01
2012-9-16,61,48,39,47,40,35,99,78,40,29.91,29.81,13,3,14,0.01
2012-9-17,74,54,38,57,47,36,99,80,40,29.88,29.65,10,1,11,0.00
2012-9-18,65,56,46,65,56,40,100,98,93,29.78,29.28,22,4,27,1.85
2012-9-19,56,47,30,53,39,30,100,77,45,30.03,29.47,15,4,18,1.88
2012-9-20,61,47,30,50,40,30,100,82,50,30.03,29.86,17,2,17,0.01
2012-9-21,66,55,45,58,52,44,100,90,71,29.88,29.64,11,3,13,0.01
2012-9-22,57,54,48,56,53,43,100,98,92,29.75,29.56,20,2,21,0.25
2012-9-23,53,46,35,50,43,34,100,89,63,29.90,29.61,17,4,21,0.37
2012-9-24,54,42,34,47,38,32,100,86,54,29.91,29.81,13,2,18,0.00
2012-9-25,66,52,32,50,40,32,100,69,42,29.85,29.77,21,3,21,0.11
2012-9-26,60,53,43,58,52,41,100,96,89,29.98,29.75,10,2,11,0.38
2012-9-27,57,48,38,54,42,34,100,82,50,30.03,29.83,11,3,12,0.01
2012-9-28,49,42,34,49,42,34,100,99,94,30.02,29.75,8,1,9,0.21
2012-9-29,52,48,47,52,48,46,100,99,95,29.81,29.67,7,2,8,0.11
2012-9-30,52,48,46,51,48,46,100,100,97,29.71,29.40,19,2,19,0.09
2012-10-1,56,49,46,55,49,43,100,99,93,29.82,29.40,13,4,17,0.37
2012-10-2,56,50,43,56,50,43,100,100,98,29.87,29.75,6,1,6,0.37
2012-10-3,63,58,51,62,58,51,100,100,100,29.95,29.84,5,1,5,0.23
2012-10-4,64,58,46,64,58,44,100,98,85,29.95,29.81,11,1,13,0.13
2012-10-5,68,56,44,63,53,44,100,91,72,29.84,29.51,16,2,21,0.02
2012-10-6,59,50,41,57,47,35,100,93,81,29.81,29.51,15,4,17,0.05
2012-10-7,49,41,36,40,35,30,97,82,53,29.97,29.73,13,3,14,0.18
2012-10-8,50,40,29,42,34,27,100,82,45,30.08,29.86,10,2,10,0.19
2012-10-9,51,39,28,46,36,27,100,88,68,30.08,29.90,11,2,12,0.01
2012-10-10,52,45,38,52,43,32,100,94,79,29.79,29.53,18,4,20,0.14
2012-10-11,45,39,36,37,34,28,97,82,55,29.87,29.63,18,5,20,0.14
2012-10-12,45,34,25,38,27,18,99,80,54,30.20,29.74,21,5,23,0.06
2012-10-13,45,34,21,34,25,18,99,77,42,30.22,29.82,11,2,11,0.23
2012-10-14,51,42,34,50,41,33,100,100,97,29.97,29.46,7,2,7,0.42
2012-10-15,59,50,43,58,49,31,100,95,85,29.60,29.41,19,3,19,0.03
2012-10-16,44,36,28,42,33,25,100,89,75,29.75,29.44,18,5,19,0.03
2012-10-17,58,40,27,47,34,25,100,83,43,29.79,29.68,9,1,10,0.03
2012-10-18,60,47,31,46,40,30,100,80,53,29.80,29.70,19,3,19,0.49
2012-10-19,54,51,48,53,50,45,100,98,85,29.76,29.42,9,2,11,2.13
2012-10-20,61,50,40,56,46,37,100,88,53,29.60,29.40,16,2,16,0.01
2012-10-21,48,45,42,45,42,39,100,91,83,29.79,29.52,22,5,22,0.19
2012-10-22,56,47,40,43,41,38,98,81,56,29.93,29.72,24,6,26,0.19
2012-10-23,58,44,35,50,41,31,100,90,61,29.98,29.85,8,2,10,0.00
2012-10-24,52,42,31,46,37,31,100,85,58,30.02,29.92,8,1,9,0.00
2012-10-25,58,50,45,52,47,40,100,89,79,30.04,29.97,8,2,8,0.00
2012-10-26,62,52,44,55,50,44,100,95,78,29.99,29.85,6,2,7,0.00
2012-10-27,63,53,44,57,51,44,100,92,74,29.93,29.77,10,2,10,0.00
2012-10-28,55,49,42,52,46,41,99,90,68,29.82,29.55,7,1,7,0.00
2012-10-29,57,50,42,54,48,41,100,91,71,29.65,29.04,31,6,33,0.39
2012-10-30,59,54,49,55,50,44,100,86,60,29.30,29.05,27,6,29,0.15
2012-10-31,50,42,36,49,41,36,100,97,92,29.28,29.19,10,3,10,0.24
2012-11-1,40,37,36,40,37,33,100,100,100,29.33,29.23,14,2,16,0.17
2012-11-2,37,34,31,36,33,30,100,98,85,29.56,29.29,13,4,14,0.05
2012-11-3,32,31,30,32,31,29,100,100,99,29.76,29.48,16,5,16,0.04
2012-11-4,32,29,27,30,26,18,100,92,82,29.83,29.70,15,5,18,0.01
2012-11-5,28,25,17,22,18,13,95,78,62,29.95,29.78,14,4,15,0.01
2012-11-6,34,24,13,23,15,9,99,76,46,29.98,29.90,7,1,8,0.00
2012-11-7,35,24,11,24,16,9,99,78,43,29.96,29.71,13,2,13,0.00
2012-11-8,32,28,23,25,21,16,90,80,69,29.83,29.70,18,6,20,0.00
2012-11-9,38,31,22,35,25,19,96,82,52,30.06,29.74,14,4,14,0.00
2012-11-10,47,37,34,35,30,22,95,78,41,30.16,29.92,11,3,11,0.04
2012-11-11,64,44,36,46,38,30,99,80,48,30.17,30.10,7,2,8,0.04
2012-11-12,65,50,33,51,42,32,100,77,47,30.15,29.80,25,4,33,0.17
2012-11-13,46,32,18,43,29,16,100,88,76,30.35,29.85,18,4,21,0.18
2012-11-14,39,27,18,31,21,14,100,84,53,30.36,30.21,7,1,8,0.00
2012-11-15,38,24,16,29,20,12,100,87,58,30.26,30.08,5,0,6,0.00
2012-11-16,42,28,14,29,20,12,100,79,46,30.37,30.08,13,2,13,0.00
2012-11-17,40,29,17,34,23,13,98,81,56,30.48,30.24,13,2,15,0.00
2012-11-18,43,26,15,33,21,13,99,84,52,30.49,30.31,5,1,6,0.00
2012-11-19,48,27,16,35,20,14,100,80,35,30.37,30.00,6,1,6,0.01
2012-11-20,44,29,20,34,23,17,98,84,54,30.06,29.93,3,0,3,0.00
2012-11-21,52,32,22,34,24,17,98,78,38,30.06,29.96,5,1,6,0.00
2012-11-22,57,32,19,34,23,17,100,77,32,30.06,29.72,6,1,6,0.00
2012-11-23,53,35,21,41,30,19,99,85,44,29.86,29.38,24,2,24,0.06
2012-11-24,36,26,20,34,21,13,96,85,72,29.56,29.37,24,7,27,0.00
2012-11-25,27,21,17,20,15,8,95,82,50,29.69,29.48,26,6,29,0.00
2012-11-26,28,25,22,25,20,17,98,86,71,29.99,29.59,17,2,17,0.00
2012-11-27,30,26,22,28,22,19,100,90,73,30.03,29.95,6,1,7,0.00
2012-11-28,30,25,21,26,22,16,99,90,74,29.99,29.84,21,3,23,0.01
2012-11-29,32,25,16,30,21,8,100,91,77,30.18,29.84,19,5,26,0.00
2012-11-30,19,16,10,15,11,8,97,86,70,30.29,30.04,10,3,10,0.00
2012-12-1,33,21,14,32,20,11,100,96,89,30.29,30.02,10,3,10,0.00
2012-12-2,43,37,28,43,37,28,100,100,98,30.14,29.75,25,2,25,0.37
2012-12-3,43,37,33,43,37,33,100,99,97,30.04,29.76,14,2,16,0.02
2012-12-4,48,41,33,48,41,33,100,100,100,30.02,29.66,19,2,24,0.33
2012-12-5,44,29,17,44,25,12,100,89,77,30.12,29.68,26,7,28,0.26
2012-12-6,30,22,17,19,16,12,91,81,61,30.13,29.85,13,3,14,0.00
2012-12-7,34,28,21,28,22,16,98,82,67,29.94,29.71,6,2,7,0.00
2012-12-8,40,33,28,40,33,26,100,99,94,30.03,29.57,16,2,18,0.07
2012-12-9,36,30,28,35,27,24,99,90,79,30.07,29.48,13,4,14,0.74
2012-12-10,42,34,28,42,34,26,100,100,97,29.77,29.27,18,3,18,1.18
2012-12-11,31,24,16,31,22,13,100,93,86,30.05,29.40,16,5,18,0.01
2012-12-12,31,24,15,28,21,13,100,92,76,30.20,29.92,13,2,15,0.00
2012-12-13,35,24,14,29,22,14,100,93,75,30.22,29.91,9,1,10,0.01
2012-12-14,33,26,14,30,24,14,100,93,85,30.07,29.87,13,3,14,0.00
2012-12-15,33,24,17,25,18,13,92,81,55,30.10,29.90,11,3,11,0.00
2012-12-16,29,25,18,28,23,13,100,94,77,29.99,29.69,15,4,15,0.00
2012-12-17,33,30,28,32,30,28,100,100,100,29.75,29.34,8,3,10,0.20
2012-12-18,36,32,29,36,32,29,100,100,100,29.52,29.24,18,2,19,0.82
2012-12-19,30,28,21,30,28,19,100,99,95,29.99,29.35,19,5,20,0.01
2012-12-20,31,26,20,31,24,18,100,94,80,29.99,29.16,23,4,23,0.01
2012-12-21,35,31,28,35,31,17,100,100,97,29.58,28.73,25,5,26,1.06
2012-12-22,30,20,14,30,17,11,100,95,85,29.59,28.87,29,8,31,0.00
2012-12-23,25,20,13,25,18,9,100,96,92,29.79,29.50,19,4,24,0.00
2012-12-24,22,17,10,20,14,9,100,92,84,29.84,29.62,13,3,16,0.00
2012-12-25,25,16,9,21,15,-4,100,95,82,30.12,29.75,15,3,16,0.00
2012-12-26,25,15,-2,24,11,-4,100,89,68,30.12,29.41,22,2,22,0.00
2012-12-27,25,20,16,25,20,16,100,100,100,29.78,29.40,18,5,22,0.00
2012-12-28,21,19,17,21,19,16,100,100,100,29.84,29.61,14,5,14,0.00
2012-12-29,22,19,8,22,19,7,100,100,98,29.80,29.37,18,2,19,0.00
2012-12-30,18,10,6,17,7,3,100,94,85,29.87,29.39,24,7,26,0.00
2012-12-31,27,20,13,26,19,10,100,97,90,29.86,29.49,29,3,30,0.00
2013-1-1,26,11,-4,26,7,-6,100,89,81,29.72,29.49,17,5,18,0.00